Time;durP1;ratioP1;P1;durP2;ratioP2;P2;SDS_P1;SDS_P2;PMS_P1;PMS_P2;Temp;Humidity;BMP_temperature;BMP_pressure;BME280_temperature;BME280_humidity;BME280_pressure;Samples;Min_cycle;Max_cycle;Signal;HPM_P1;HPM_P2
2022/06/29 00:00:24;;;;;;;5.95;1.80;;;13.50;99.90;;;;;;5092966;28;20063;-60
2022/06/29 00:02:50;;;;;;;4.43;2.00;;;13.60;99.90;;;;;;5092676;28;20036;-61
2022/06/29 00:05:18;;;;;;;7.10;2.20;;;13.60;99.90;;;;;;5094747;28;20020;-60
2022/06/29 00:07:44;;;;;;;4.82;1.85;;;13.60;99.90;;;;;;5092716;28;20434;-59
2022/06/29 00:10:12;;;;;;;4.78;2.40;;;13.40;99.90;;;;;;5092584;28;20043;-60
2022/06/29 00:12:38;;;;;;;6.57;2.42;;;13.20;99.90;;;;;;5092598;28;20016;-61
2022/06/29 00:15:06;;;;;;;3.35;2.13;;;13.10;99.90;;;;;;5091898;28;20090;-61
2022/06/29 00:17:32;;;;;;;4.70;2.08;;;13.20;99.90;;;;;;5090197;28;20016;-61
2022/06/29 00:19:59;;;;;;;3.90;2.13;;;13.20;99.90;;;;;;5092389;28;20032;-61
2022/06/29 00:22:25;;;;;;;5.95;2.15;;;13.30;99.90;;;;;;5092352;28;20039;-59
2022/06/29 00:24:51;;;;;;;4.28;2.10;;;13.20;99.90;;;;;;5091042;28;20081;-61
2022/06/29 00:27:17;;;;;;;4.15;1.95;;;13.00;99.90;;;;;;5092613;28;20056;-61
2022/06/29 00:29:43;;;;;;;3.63;2.20;;;12.90;99.90;;;;;;5093486;28;20496;-61
2022/06/29 00:32:09;;;;;;;5.30;2.22;;;13.00;99.90;;;;;;5093287;28;20032;-61
2022/06/29 00:34:35;;;;;;;5.13;2.17;;;13.00;99.90;;;;;;5092227;28;20023;-61
2022/06/29 00:37:01;;;;;;;4.18;2.28;;;12.80;99.90;;;;;;5091123;28;20377;-59
2022/06/29 00:39:27;;;;;;;3.65;2.15;;;12.70;99.90;;;;;;5092346;28;20020;-61
2022/06/29 00:41:53;;;;;;;4.53;2.15;;;12.70;99.90;;;;;;5090504;28;20048;-61
2022/06/29 00:44:20;;;;;;;5.32;2.33;;;12.70;99.90;;;;;;5094473;28;20028;-61
2022/06/29 00:46:47;;;;;;;3.42;2.05;;;12.60;99.90;;;;;;5091773;28;20031;-62
2022/06/29 00:49:15;;;;;;;5.45;2.20;;;12.60;99.90;;;;;;5091514;28;20028;-61
2022/06/29 00:51:49;;;;;;;6.88;2.30;;;12.80;99.90;;;;;;5091813;28;20058;-61
2022/06/29 00:54:20;;;;;;;4.68;2.40;;;12.80;99.90;;;;;;5090902;28;20031;-60
2022/06/29 00:56:47;;;;;;;3.13;1.98;;;12.70;99.90;;;;;;5092356;28;20036;-60
2022/06/29 00:59:17;;;;;;;6.28;2.22;;;12.70;99.90;;;;;;5092989;28;20039;-62
2022/06/29 01:01:43;;;;;;;4.95;2.40;;;12.80;99.90;;;;;;5090662;28;20404;-60
2022/06/29 01:04:09;;;;;;;4.55;2.13;;;12.80;99.90;;;;;;5091639;28;20027;-60
2022/06/29 01:06:35;;;;;;;5.47;2.30;;;12.80;99.90;;;;;;5091756;28;20389;-61
2022/06/29 01:09:03;;;;;;;5.10;2.40;;;12.70;99.90;;;;;;5091646;28;20037;-60
2022/06/29 01:11:28;;;;;;;3.83;2.10;;;12.70;99.90;;;;;;5093404;28;20040;-61
2022/06/29 01:13:54;;;;;;;4.45;2.45;;;12.70;99.90;;;;;;5091222;28;20028;-60
2022/06/29 01:16:20;;;;;;;5.30;2.30;;;13.00;99.90;;;;;;5091372;28;20024;-60
2022/06/29 01:18:45;;;;;;;4.38;2.10;;;12.80;99.90;;;;;;5091351;28;20644;-61
2022/06/29 01:21:11;;;;;;;3.40;2.00;;;12.50;99.90;;;;;;5091766;28;20027;-61
2022/06/29 01:23:37;;;;;;;4.78;2.20;;;12.40;99.90;;;;;;5092633;28;20100;-60
2022/06/29 01:26:05;;;;;;;5.32;2.35;;;12.40;99.90;;;;;;5091917;28;20035;-60
2022/06/29 01:28:31;;;;;;;5.13;2.35;;;12.20;99.90;;;;;;5090753;28;20027;-60
2022/06/29 01:30:58;;;;;;;6.07;2.70;;;12.30;99.90;;;;;;5091090;28;20156;-60
2022/06/29 01:33:24;;;;;;;4.38;2.30;;;12.40;99.90;;;;;;5088616;28;20554;-61
2022/06/29 01:35:50;;;;;;;3.55;2.22;;;12.40;99.90;;;;;;5091366;28;20024;-61
2022/06/29 01:38:17;;;;;;;5.13;2.50;;;12.40;99.90;;;;;;5092692;28;20077;-59
2022/06/29 01:40:42;;;;;;;4.53;2.33;;;12.10;99.90;;;;;;5090613;28;20546;-61
2022/06/29 01:43:08;;;;;;;5.70;2.50;;;12.00;99.90;;;;;;5090426;28;20032;-60
2022/06/29 01:45:34;;;;;;;3.20;2.28;;;12.10;99.90;;;;;;5091042;28;20027;-60
2022/06/29 01:48:00;;;;;;;5.38;2.30;;;12.10;99.90;;;;;;5090844;28;20032;-61
2022/06/29 01:50:26;;;;;;;5.82;2.65;;;12.10;99.90;;;;;;5093139;28;20021;-60
2022/06/29 01:52:51;;;;;;;4.88;2.53;;;11.90;99.90;;;;;;5090726;28;20435;-61
2022/06/29 01:55:17;;;;;;;4.47;2.20;;;11.90;99.90;;;;;;5090722;28;20448;-61
2022/06/29 01:57:43;;;;;;;3.58;2.40;;;11.90;99.90;;;;;;5090424;28;20170;-61
2022/06/29 02:00:09;;;;;;;3.95;2.47;;;11.80;99.90;;;;;;5090760;28;20064;-61
2022/06/29 02:02:35;;;;;;;6.00;2.45;;;11.70;99.90;;;;;;5092593;28;20032;-61
2022/06/29 02:05:01;;;;;;;6.57;2.75;;;11.80;99.90;;;;;;5090492;28;20028;-59
2022/06/29 02:07:26;;;;;;;7.50;2.70;;;11.60;99.90;;;;;;5090720;28;20032;-61
2022/06/29 02:09:52;;;;;;;6.72;2.60;;;11.60;99.90;;;;;;5090647;28;20397;-60
2022/06/29 02:12:18;;;;;;;3.83;2.65;;;11.80;99.90;;;;;;5088506;28;20036;-58
2022/06/29 02:14:43;;;;;;;4.72;2.60;;;11.80;99.90;;;;;;5091273;28;20028;-61
2022/06/29 02:17:09;;;;;;;5.68;2.53;;;11.80;99.90;;;;;;5091571;28;20556;-61
2022/06/29 02:19:35;;;;;;;4.25;2.47;;;11.80;99.90;;;;;;5090848;28;20027;-61
2022/06/29 02:22:02;;;;;;;6.45;2.83;;;11.60;99.90;;;;;;5090185;28;20493;-59
2022/06/29 02:24:27;;;;;;;4.22;2.45;;;11.50;99.90;;;;;;5090118;28;20497;-61
2022/06/29 02:26:53;;;;;;;4.25;2.80;;;11.50;99.90;;;;;;5089944;28;20047;-60
2022/06/29 02:29:19;;;;;;;6.90;2.78;;;11.50;99.90;;;;;;5092171;28;20061;-61
2022/06/29 02:34:44;;;;;;;2.85;2.40;;;12.00;99.90;;;;;;5090366;28;20030;-60
2022/06/29 02:37:11;;;;;;;4.82;2.50;;;11.80;99.90;;;;;;5089976;28;20119;-60
2022/06/29 02:39:38;;;;;;;4.70;2.80;;;11.70;99.90;;;;;;5090178;28;20119;-61
2022/06/29 02:42:04;;;;;;;5.05;2.67;;;11.60;99.90;;;;;;5089954;28;20135;-60
2022/06/29 02:44:30;;;;;;;5.45;3.00;;;11.50;99.90;;;;;;5087923;28;20089;-61
2022/06/29 02:46:56;;;;;;;3.78;2.60;;;11.40;99.90;;;;;;5089845;28;20106;-61
2022/06/29 02:49:22;;;;;;;6.25;2.88;;;11.50;99.90;;;;;;5089994;28;20020;-61
2022/06/29 02:51:47;;;;;;;5.00;2.65;;;11.50;99.90;;;;;;5088402;28;20055;-61
2022/06/29 02:54:13;;;;;;;4.53;2.22;;;11.40;99.90;;;;;;5089874;28;20782;-61
2022/06/29 02:56:39;;;;;;;6.20;2.80;;;11.40;99.90;;;;;;5091450;28;20028;-60
2022/06/29 02:59:05;;;;;;;5.75;2.60;;;11.30;99.90;;;;;;5090713;28;20025;-60
2022/06/29 03:01:31;;;;;;;4.47;2.30;;;11.30;99.90;;;;;;5089719;28;20032;-60
2022/06/29 03:03:56;;;;;;;4.68;2.38;;;11.20;99.90;;;;;;5089829;28;20024;-60
2022/06/29 03:06:22;;;;;;;5.18;2.30;;;11.20;99.90;;;;;;5089888;28;20465;-61
2022/06/29 03:08:48;;;;;;;6.13;2.45;;;11.30;99.90;;;;;;5090220;28;20099;-60
2022/06/29 03:11:13;;;;;;;4.25;2.53;;;11.20;99.90;;;;;;5091460;28;20025;-60
2022/06/29 03:13:39;;;;;;;3.85;2.25;;;11.10;99.90;;;;;;5089813;28;20028;-61
2022/06/29 03:16:05;;;;;;;4.15;2.40;;;11.20;99.90;;;;;;5089693;28;20035;-60
2022/06/29 03:18:31;;;;;;;4.78;2.30;;;11.20;99.90;;;;;;5089867;28;20576;-61
2022/06/29 03:20:56;;;;;;;4.10;2.30;;;11.30;99.90;;;;;;5090071;28;20070;-61
2022/06/29 03:23:22;;;;;;;2.92;2.30;;;11.30;99.90;;;;;;5091590;28;20028;-59
2022/06/29 03:25:48;;;;;;;4.50;2.47;;;11.20;99.90;;;;;;5093203;28;20032;-60
2022/06/29 03:28:13;;;;;;;4.15;2.55;;;11.20;99.90;;;;;;5093489;28;20556;-59
2022/06/29 03:30:39;;;;;;;7.28;2.58;;;11.10;99.90;;;;;;5092185;28;20032;-61
2022/06/29 03:33:05;;;;;;;3.15;2.20;;;11.20;99.90;;;;;;5093512;28;20020;-62
2022/06/29 03:35:31;;;;;;;5.07;2.25;;;11.40;99.90;;;;;;5095777;28;20465;-61
2022/06/29 03:37:56;;;;;;;4.00;2.40;;;11.90;99.90;;;;;;5093354;28;20024;-60
2022/06/29 03:40:22;;;;;;;6.18;2.40;;;11.70;99.90;;;;;;5092903;28;20058;-61
2022/06/29 03:42:48;;;;;;;4.28;2.35;;;11.40;99.90;;;;;;5093143;28;20048;-61
2022/06/29 03:45:13;;;;;;;7.15;2.55;;;11.20;99.90;;;;;;5093434;28;20020;-62
2022/06/29 03:47:39;;;;;;;5.47;2.50;;;10.90;99.90;;;;;;5094586;28;20110;-62
2022/06/29 03:50:07;;;;;;;3.42;2.35;;;10.80;99.90;;;;;;5093859;28;20012;-62
2022/06/29 03:52:32;;;;;;;7.88;2.75;;;10.70;99.90;;;;;;5093166;28;20073;-62
2022/06/29 03:54:58;;;;;;;4.85;2.50;;;10.70;99.90;;;;;;5092763;28;20028;-62
2022/06/29 03:57:24;;;;;;;6.10;2.58;;;10.70;99.90;;;;;;5093397;28;20527;-61
2022/06/29 03:59:49;;;;;;;5.25;2.45;;;10.70;99.90;;;;;;5092898;28;20442;-61
2022/06/29 04:02:15;;;;;;;3.72;2.60;;;10.60;99.90;;;;;;5094820;28;20031;-61
2022/06/29 04:04:41;;;;;;;5.15;2.60;;;10.60;99.90;;;;;;5092782;28;20020;-60
2022/06/29 04:07:07;;;;;;;5.65;2.67;;;10.50;99.90;;;;;;5092748;28;20031;-61
2022/06/29 04:09:33;;;;;;;6.18;2.50;;;10.50;99.90;;;;;;5091019;28;20107;-60
2022/06/29 04:11:58;;;;;;;6.00;3.00;;;10.40;99.90;;;;;;5093150;28;20024;-60
2022/06/29 04:14:28;;;;;;;5.00;2.50;;;10.50;99.90;;;;;;5094755;28;20035;-61
2022/06/29 04:16:55;;;;;;;4.13;2.30;;;10.70;99.90;;;;;;5092562;28;20024;-62
2022/06/29 04:19:22;;;;;;;3.95;2.58;;;10.60;99.90;;;;;;5092547;28;20101;-61
2022/06/29 04:21:48;;;;;;;4.57;2.30;;;10.90;99.90;;;;;;5092436;28;20040;-60
2022/06/29 04:24:15;;;;;;;4.93;2.20;;;10.80;99.90;;;;;;5092174;28;20024;-62
2022/06/29 04:26:41;;;;;;;2.63;2.33;;;10.60;99.90;;;;;;5093756;28;20031;-61
2022/06/29 04:29:07;;;;;;;4.63;2.20;;;10.70;99.90;;;;;;5093395;28;20020;-62
2022/06/29 04:31:33;;;;;;;4.03;2.38;;;10.50;99.90;;;;;;5092602;28;20020;-62
2022/06/29 04:34:00;;;;;;;4.68;2.55;;;10.50;99.90;;;;;;5092368;28;20032;-62
2022/06/29 04:36:26;;;;;;;4.13;2.40;;;10.40;99.90;;;;;;5091725;28;20107;-62
2022/06/29 04:38:53;;;;;;;4.20;2.30;;;10.40;99.90;;;;;;5092285;28;20056;-61
2022/06/29 04:41:19;;;;;;;6.43;2.40;;;10.50;99.90;;;;;;5094023;28;20105;-62
2022/06/29 04:43:46;;;;;;;6.60;2.38;;;10.40;99.90;;;;;;5092490;28;20373;-60
2022/06/29 04:46:21;;;;;;;3.80;2.40;;;10.60;99.90;;;;;;5091994;28;20107;-61
2022/06/29 04:48:47;;;;;;;3.45;2.10;;;10.80;99.90;;;;;;5090386;28;20032;-62
2022/06/29 04:51:13;;;;;;;3.83;2.33;;;10.80;99.90;;;;;;5091719;28;20106;-61
2022/06/29 04:53:39;;;;;;;6.10;2.67;;;11.00;99.90;;;;;;5093735;28;20112;-61
2022/06/29 04:56:05;;;;;;;4.53;2.65;;;11.20;99.90;;;;;;5092689;28;20454;-62
2022/06/29 04:58:30;;;;;;;7.28;2.67;;;10.90;99.90;;;;;;5091736;28;20027;-60
2022/06/29 05:00:56;;;;;;;2.67;2.00;;;10.80;99.90;;;;;;5091752;28;20036;-62
2022/06/29 05:03:22;;;;;;;6.13;2.30;;;11.00;99.90;;;;;;5092197;28;20028;-61
2022/06/29 05:05:48;;;;;;;4.10;2.15;;;11.00;99.90;;;;;;5091625;28;20417;-61
2022/06/29 05:08:17;;;;;;;4.65;2.28;;;11.10;99.90;;;;;;5091324;28;20103;-61
2022/06/29 05:10:43;;;;;;;6.20;2.50;;;11.10;99.90;;;;;;5091532;28;20507;-61
2022/06/29 05:13:10;;;;;;;2.90;2.13;;;11.20;99.90;;;;;;5091448;28;20044;-62
2022/06/29 05:15:37;;;;;;;9.23;2.30;;;11.40;99.90;;;;;;5091623;28;20035;-61
2022/06/29 05:18:03;;;;;;;3.78;2.30;;;11.50;99.90;;;;;;5075478;28;20020;-62
2022/06/29 05:20:28;;;;;;;6.38;2.45;;;11.30;99.90;;;;;;5093432;28;20035;-61
2022/06/29 05:22:54;;;;;;;3.13;2.00;;;11.70;99.90;;;;;;5091203;28;20062;-60
2022/06/29 05:25:20;;;;;;;3.55;1.92;;;12.30;99.90;;;;;;5091311;28;20028;-61
2022/06/29 05:27:46;;;;;;;2.63;2.00;;;13.20;99.90;;;;;;5089769;28;20056;-60
2022/06/29 05:30:12;;;;;;;3.45;2.00;;;14.60;99.90;;;;;;5091061;28;20031;-61
2022/06/29 05:32:38;;;;;;;3.63;2.00;;;15.80;99.90;;;;;;5092648;28;20020;-60
2022/06/29 05:35:04;;;;;;;5.63;2.10;;;15.20;99.90;;;;;;5107059;28;20528;-60
2022/06/29 05:37:31;;;;;;;5.03;1.85;;;14.90;99.90;;;;;;5091273;28;20043;-59
2022/06/29 05:39:57;;;;;;;1.27;1.02;;;14.90;99.90;;;;;;5090743;28;20176;-61
2022/06/29 05:42:23;;;;;;;1.90;1.23;;;16.80;99.90;;;;;;5091044;28;20129;-60
2022/06/29 05:44:48;;;;;;;1.90;1.27;;;19.60;99.90;;;;;;5091057;28;20024;-61
2022/06/29 05:47:14;;;;;;;2.78;1.25;;;20.90;99.90;;;;;;5092150;28;20020;-60
2022/06/29 05:49:41;;;;;;;3.85;1.40;;;21.60;99.90;;;;;;5090861;28;20523;-61
2022/06/29 05:52:07;;;;;;;4.63;1.45;;;21.80;99.90;;;;;;5090763;28;20427;-60
2022/06/29 05:54:33;;;;;;;2.78;1.63;;;22.10;99.90;;;;;;5090812;28;20032;-61
2022/06/29 05:56:59;;;;;;;3.15;1.75;;;22.40;99.90;;;;;;5091247;28;20023;-61
2022/06/29 05:59:25;;;;;;;6.18;1.58;;;22.70;99.90;;;;;;5092701;28;20027;-61
2022/06/29 06:01:51;;;;;;;4.65;1.60;;;22.50;99.90;;;;;;5090491;28;20043;-60
2022/06/29 06:04:17;;;;;;;4.00;1.58;;;22.40;99.90;;;;;;5090562;28;20028;-59
2022/06/29 06:06:42;;;;;;;9.32;1.77;;;22.70;99.90;;;;;;5087986;28;20020;-61
2022/06/29 06:09:08;;;;;;;4.00;1.70;;;22.60;99.90;;;;;;5090495;28;20032;-61
2022/06/29 06:11:35;;;;;;;3.90;1.55;;;22.60;99.90;;;;;;5092298;28;20370;-61
2022/06/29 06:14:01;;;;;;;3.95;1.65;;;22.70;99.90;;;;;;5107037;28;20024;-61
2022/06/29 06:16:27;;;;;;;3.38;1.63;;;23.10;99.90;;;;;;5090123;28;20099;-61
2022/06/29 06:18:53;;;;;;;4.78;1.80;;;23.00;99.90;;;;;;5089984;28;20028;-63
2022/06/29 06:21:19;;;;;;;4.38;1.80;;;23.20;99.90;;;;;;5090603;28;20028;-60
2022/06/29 06:23:45;;;;;;;4.35;1.70;;;23.40;99.90;;;;;;5090996;28;20470;-62
2022/06/29 06:26:11;;;;;;;4.10;1.60;;;23.50;99.90;;;;;;5091752;28;20047;-62
2022/06/29 06:28:36;;;;;;;3.53;1.73;;;23.70;99.70;;;;;;5090108;28;20032;-61
2022/06/29 06:31:02;;;;;;;6.45;1.80;;;24.20;99.40;;;;;;5089989;28;20024;-62
2022/06/29 06:33:28;;;;;;;4.65;1.60;;;24.40;99.00;;;;;;5090232;28;20126;-63
2022/06/29 06:35:53;;;;;;;4.78;1.75;;;24.50;98.80;;;;;;5090185;28;20032;-62
2022/06/29 06:38:19;;;;;;;4.78;1.80;;;24.60;98.40;;;;;;5091881;28;20028;-62
2022/06/29 06:43:29;;;;;;;4.47;1.60;;;25.30;97.60;;;;;;5089720;28;20043;-64
2022/06/29 06:45:54;;;;;;;4.20;1.60;;;25.80;96.90;;;;;;5088567;28;20028;-62
2022/06/29 06:48:20;;;;;;;5.15;1.80;;;27.10;95.20;;;;;;5089543;28;20034;-62
2022/06/29 06:50:46;;;;;;;3.53;1.90;;;29.80;92.70;;;;;;5090263;28;20258;-62
2022/06/29 06:53:12;;;;;;;3.78;1.50;;;29.10;92.30;;;;;;5090208;28;20032;-62
2022/06/29 06:55:37;;;;;;;4.80;1.85;;;29.80;90.70;;;;;;5089750;28;20086;-62
2022/06/29 06:58:03;;;;;;;3.08;1.90;;;29.70;90.50;;;;;;5090916;28;20024;-62
2022/06/29 07:00:29;;;;;;;3.78;2.00;;;29.10;91.20;;;;;;5094416;28;20032;-62
2022/06/29 07:02:55;;;;;;;3.80;1.65;;;29.20;90.50;;;;;;5092180;28;20417;-63
2022/06/29 07:05:21;;;;;;;5.55;2.28;;;28.20;91.50;;;;;;5095962;28;20115;-63
2022/06/29 07:07:47;;;;;;;3.78;1.90;;;28.80;92.00;;;;;;5092833;28;20454;-62
2022/06/29 07:10:13;;;;;;;4.43;1.70;;;30.40;89.00;;;;;;5093710;28;20024;-62
2022/06/29 07:12:38;;;;;;;4.50;1.50;;;31.60;86.70;;;;;;5093773;28;20093;-63
2022/06/29 07:15:05;;;;;;;5.85;1.92;;;30.00;89.10;;;;;;5093643;28;20397;-63
2022/06/29 07:17:31;;;;;;;6.25;1.60;;;28.70;90.20;;;;;;5091119;28;20028;-63
2022/06/29 07:19:57;;;;;;;3.65;1.70;;;29.30;89.90;;;;;;5093180;28;20617;-63
2022/06/29 07:22:23;;;;;;;2.35;1.50;;;30.30;88.60;;;;;;5093041;28;20475;-63
2022/06/29 07:24:49;;;;;;;4.40;1.83;;;32.30;84.40;;;;;;5092328;28;20032;-63
2022/06/29 07:27:14;;;;;;;4.72;1.90;;;31.40;86.60;;;;;;5093179;28;20443;-63
2022/06/29 07:29:41;;;;;;;3.63;1.70;;;29.60;90.00;;;;;;5094285;28;20107;-63
2022/06/29 07:32:07;;;;;;;3.47;1.73;;;31.00;85.90;;;;;;5093594;28;20024;-63
2022/06/29 07:34:32;;;;;;;3.08;1.50;;;30.70;87.50;;;;;;5092719;28;20031;-63
2022/06/29 07:36:58;;;;;;;4.07;1.73;;;29.90;88.30;;;;;;5092587;28;20095;-63
2022/06/29 07:39:25;;;;;;;4.72;1.70;;;30.00;88.20;;;;;;5093940;28;20030;-63
2022/06/29 07:41:50;;;;;;;3.10;1.50;;;30.90;86.00;;;;;;5092821;28;20059;-62
2022/06/29 07:44:16;;;;;;;6.55;1.52;;;31.90;81.80;;;;;;5094348;28;20028;-63
2022/06/29 07:46:42;;;;;;;3.13;1.40;;;32.80;81.00;;;;;;5092130;28;20068;-63
2022/06/29 07:49:07;;;;;;;2.20;1.40;;;33.80;79.50;;;;;;5092547;28;20034;-63
2022/06/29 07:51:34;;;;;;;2.58;1.50;;;33.20;77.30;;;;;;5093222;28;20032;-63
2022/06/29 07:54:00;;;;;;;2.45;1.45;;;33.00;79.80;;;;;;5092373;28;20050;-63
2022/06/29 07:56:25;;;;;;;3.38;1.50;;;34.20;78.00;;;;;;5094444;28;20056;-63
2022/06/29 07:58:51;;;;;;;2.00;1.27;;;32.50;80.20;;;;;;5092346;28;20025;-63
2022/06/29 08:01:17;;;;;;;2.78;1.40;;;32.90;79.60;;;;;;5092167;28;20030;-63
2022/06/29 08:03:43;;;;;;;2.15;1.27;;;31.70;81.10;;;;;;5092431;28;20444;-63
2022/06/29 08:06:10;;;;;;;3.88;1.40;;;31.60;81.10;;;;;;5092266;28;20078;-63
2022/06/29 08:08:35;;;;;;;4.13;1.50;;;29.60;85.20;;;;;;5094207;28;20039;-63
2022/06/29 08:11:02;;;;;;;3.25;1.40;;;31.50;80.80;;;;;;5091841;28;20032;-63
2022/06/29 08:13:28;;;;;;;3.78;1.55;;;32.40;80.50;;;;;;5092022;28;20442;-64
2022/06/29 08:15:53;;;;;;;1.90;1.40;;;31.80;80.60;;;;;;5092178;28;20032;-63
2022/06/29 08:18:19;;;;;;;2.63;1.23;;;33.10;79.20;;;;;;5093075;28;20020;-63
2022/06/29 08:20:45;;;;;;;2.50;1.38;;;31.40;82.10;;;;;;5091420;28;20480;-64
2022/06/29 08:23:11;;;;;;;3.72;1.35;;;33.50;78.60;;;;;;5093361;28;20554;-63
2022/06/29 08:25:37;;;;;;;1.98;1.30;;;33.30;77.90;;;;;;5091826;28;20028;-65
2022/06/29 08:28:03;;;;;;;3.30;1.40;;;31.90;80.60;;;;;;5089616;28;20020;-64
2022/06/29 08:30:29;;;;;;;2.15;1.20;;;30.40;84.00;;;;;;5092679;28;20042;-63
2022/06/29 08:32:55;;;;;;;3.00;1.17;;;30.20;83.60;;;;;;5093507;28;20039;-64
2022/06/29 08:35:21;;;;;;;3.47;1.35;;;29.50;85.20;;;;;;5094356;28;20032;-64
2022/06/29 08:37:47;;;;;;;2.90;1.48;;;29.50;85.60;;;;;;5091710;28;20485;-63
2022/06/29 08:40:15;;;;;;;2.83;1.33;;;31.00;83.30;;;;;;5092335;28;20507;-64
2022/06/29 08:42:41;;;;;;;3.25;1.50;;;31.80;81.60;;;;;;5090463;28;20048;-63
2022/06/29 08:45:09;;;;;;;4.90;1.50;;;31.30;82.70;;;;;;5091639;28;20021;-65
2022/06/29 08:47:35;;;;;;;3.30;1.83;;;31.90;80.80;;;;;;5092454;28;20020;-65
2022/06/29 08:50:09;;;;;;;2.88;1.60;;;33.50;78.80;;;;;;5092286;28;20055;-65
2022/06/29 08:52:36;;;;;;;2.97;1.30;;;34.30;76.80;;;;;;5091915;28;20028;-65
2022/06/29 08:55:07;;;;;;;2.58;1.38;;;34.20;77.00;;;;;;5091770;28;20427;-65
2022/06/29 08:57:37;;;;;;;3.38;1.52;;;34.70;74.90;;;;;;5091503;28;20089;-66
2022/06/29 09:00:04;;;;;;;2.35;1.30;;;32.30;80.00;;;;;;5075914;28;20142;-66
2022/06/29 09:02:30;;;;;;;3.03;1.50;;;32.00;81.10;;;;;;5088954;28;20032;-66
2022/06/29 09:04:56;;;;;;;2.45;1.25;;;31.60;81.30;;;;;;5091743;28;20074;-66
2022/06/29 09:07:26;;;;;;;3.30;1.45;;;31.80;81.40;;;;;;5091532;28;20497;-66
2022/06/29 09:10:11;;;;;;;2.67;1.30;;;32.00;79.20;;;;;;5091382;28;20028;-66
2022/06/29 09:12:38;;;;;;;2.47;1.40;;;33.20;78.90;;;;;;5091621;28;20043;-67
2022/06/29 09:15:08;;;;;;;2.60;1.15;;;30.80;82.80;;;;;;5091643;28;20431;-67
2022/06/29 09:17:34;;;;;;;4.05;1.38;;;33.50;79.70;;;;;;5089453;28;20085;-67
2022/06/29 09:20:00;;;;;;;3.00;1.30;;;35.10;75.10;;;;;;5091769;28;20028;-67
2022/06/29 09:22:26;;;;;;;2.55;1.40;;;34.00;74.80;;;;;;5088645;28;20397;-67
2022/06/29 09:24:52;;;;;;;1.88;1.25;;;31.90;80.60;;;;;;5091476;28;20046;-67
2022/06/29 09:27:18;;;;;;;3.15;1.30;;;32.60;79.50;;;;;;5091103;28;20505;-67
2022/06/29 09:29:45;;;;;;;3.60;1.25;;;31.20;82.30;;;;;;5091909;28;20016;-67
2022/06/29 09:32:13;;;;;;;3.35;1.52;;;33.20;79.30;;;;;;5108824;28;20373;-67
2022/06/29 09:34:50;;;;;;;2.72;1.30;;;30.00;83.90;;;;;;5091013;28;20021;-67
2022/06/29 09:37:21;;;;;;;3.85;1.58;;;29.80;84.30;;;;;;5091146;28;20401;-67
2022/06/29 09:39:52;;;;;;;2.97;1.10;;;28.10;89.20;;;;;;5090824;28;20028;-67
2022/06/29 09:42:24;;;;;;;3.35;1.50;;;27.70;88.90;;;;;;5090362;28;20090;-67
2022/06/29 09:44:50;;;;;;;2.95;1.40;;;26.90;90.90;;;;;;5090950;28;20028;-68
2022/06/29 09:47:21;;;;;;;3.15;1.38;;;26.10;91.50;;;;;;5093223;28;20069;-67
2022/06/29 09:49:52;;;;;;;1.67;1.00;;;26.50;91.60;;;;;;5091160;28;20103;-68
2022/06/29 09:52:19;;;;;;;2.88;1.40;;;27.80;90.90;;;;;;5090272;28;20035;-67
2022/06/29 09:54:52;;;;;;;2.67;1.20;;;28.10;89.70;;;;;;5091095;28;20024;-67
2022/06/29 09:57:29;;;;;;;2.67;1.27;;;27.50;89.00;;;;;;5090480;28;20081;-67
2022/06/29 10:02:51;;;;;;;2.53;1.10;;;27.10;90.70;;;;;;5089032;28;20403;-67
2022/06/29 10:05:28;;;;;;;2.70;1.25;;;28.50;89.90;;;;;;5092523;28;20017;-67
2022/06/29 10:07:55;;;;;;;2.47;1.30;;;27.50;90.60;;;;;;5090898;28;20028;-67
2022/06/29 10:10:24;;;;;;;2.40;1.15;;;26.60;91.40;;;;;;5089709;28;20028;-68
2022/06/29 10:16:05;;;;;;;2.80;1.08;;;27.00;91.30;;;;;;5090607;28;20038;-67
2022/06/29 10:18:55;;;;;;;2.17;0.90;;;27.40;90.80;;;;;;5090401;28;20051;-67
2022/06/29 10:21:28;;;;;;;3.05;1.13;;;26.20;92.00;;;;;;5076637;28;20023;-67
2022/06/29 10:23:56;;;;;;;1.65;1.00;;;25.80;93.00;;;;;;5090582;28;20044;-68
2022/06/29 10:26:37;;;;;;;4.97;1.30;;;25.80;92.80;;;;;;5091675;28;20032;-68
2022/06/29 10:29:06;;;;;;;2.53;1.20;;;26.60;91.90;;;;;;5089090;28;20032;-67
2022/06/29 10:31:50;;;;;;;2.80;1.20;;;26.90;92.20;;;;;;5090364;28;20035;-67
2022/06/29 10:37:07;;;;;;;2.38;1.20;;;25.90;92.80;;;;;;5090420;28;20119;-67
2022/06/29 10:39:44;;;;;;;3.35;1.10;;;25.60;93.00;;;;;;5088632;28;20028;-67
2022/06/29 10:45:16;;;;;;;1.83;0.98;;;26.10;93.00;;;;;;5074662;28;20394;-67
2022/06/29 10:47:58;;;;;;;2.28;1.15;;;26.10;92.90;;;;;;5091173;28;20107;-67
2022/06/29 10:50:30;;;;;;;1.92;1.17;;;26.40;92.70;;;;;;5090818;28;20032;-66
2022/06/29 10:53:11;;;;;;;1.85;1.20;;;26.10;92.90;;;;;;5090270;28;20503;-66
2022/06/29 10:55:52;;;;;;;3.60;1.10;;;26.40;92.60;;;;;;5089805;28;20138;-67
2022/06/29 10:58:20;;;;;;;1.90;1.33;;;27.00;92.20;;;;;;5089880;28;20023;-67
2022/06/29 11:00:48;;;;;;;2.22;1.15;;;27.20;91.80;;;;;;5089812;28;20040;-68
2022/06/29 11:03:22;;;;;;;7.07;1.23;;;26.20;92.70;;;;;;5089749;28;20039;-68
2022/06/29 11:15:39;;;;;;;2.75;1.23;;;25.80;93.60;;;;;;5089523;28;20035;-68
2022/06/29 11:16:54;;;;;;;1.90;1.10;;;25.90;94.00;;;;;;5089527;28;20081;-68
2022/06/29 11:19:30;;;;;;;2.80;1.58;;;25.90;93.70;;;;;;5088669;28;20028;-69
2022/06/29 11:22:10;;;;;;;3.05;1.15;;;26.00;93.30;;;;;;5089670;28;20034;-69
2022/06/29 11:24:55;;;;;;;2.88;1.45;;;26.80;93.60;;;;;;5089548;28;20032;-68
2022/06/29 11:27:30;;;;;;;2.72;1.17;;;25.70;93.90;;;;;;5075982;28;20047;-69
2022/06/29 11:29:56;;;;;;;1.40;1.10;;;26.40;93.00;;;;;;5090079;28;20042;-68
2022/06/29 11:32:38;;;;;;;2.55;1.05;;;25.40;94.20;;;;;;5091164;28;20028;-69
2022/06/29 11:35:05;;;;;;;2.80;1.17;;;25.90;93.60;;;;;;5088394;28;20038;-68
2022/06/29 11:37:31;;;;;;;2.40;1.25;;;26.50;93.10;;;;;;5089377;28;20102;-69
2022/06/29 11:39:57;;;;;;;1.25;1.00;;;26.80;93.20;;;;;;5089551;28;20024;-69
2022/06/29 11:45:18;;;;;;;1.35;1.00;;;26.70;92.70;;;;;;5076876;28;20503;-69
2022/06/29 11:47:54;;;;;;;2.38;1.05;;;25.70;94.00;;;;;;5094008;28;20025;-69
2022/06/29 11:50:21;;;;;;;1.58;1.15;;;26.30;93.50;;;;;;5093624;28;20044;-69
2022/06/29 11:52:51;;;;;;;1.90;1.20;;;26.70;93.30;;;;;;5091257;28;20650;-69
2022/06/29 11:55:43;;;;;;;1.65;1.08;;;27.80;91.90;;;;;;5093356;28;20392;-69
2022/06/29 11:58:14;;;;;;;2.97;1.00;;;28.10;91.20;;;;;;5091861;28;20031;-69
2022/06/29 12:00:40;;;;;;;2.60;1.20;;;27.50;91.70;;;;;;5092719;28;20477;-69
2022/06/29 12:03:07;;;;;;;1.20;1.10;;;27.20;92.20;;;;;;5092743;28;20504;-68
2022/06/29 12:05:32;;;;;;;2.65;1.15;;;26.60;92.90;;;;;;5094899;28;20025;-68
2022/06/29 12:07:58;;;;;;;2.75;1.20;;;26.10;93.60;;;;;;5092340;28;20024;-68
2022/06/29 12:10:24;;;;;;;1.38;1.10;;;25.60;94.30;;;;;;5092672;28;20473;-68
2022/06/29 12:12:49;;;;;;;3.80;1.17;;;26.10;93.70;;;;;;5092660;28;20024;-68
2022/06/29 12:15:17;;;;;;;2.05;1.10;;;25.90;93.90;;;;;;5092654;28;20020;-69
2022/06/29 12:17:43;;;;;;;2.08;1.20;;;26.50;93.40;;;;;;5093650;28;20032;-70
2022/06/29 12:20:10;;;;;;;2.70;1.23;;;26.60;94.20;;;;;;5094037;28;20020;-71
2022/06/29 12:22:36;;;;;;;1.75;1.08;;;27.50;92.80;;;;;;5092150;28;20020;-70
2022/06/29 12:25:02;;;;;;;3.55;1.17;;;27.40;92.30;;;;;;5092707;28;20502;-68
2022/06/29 12:27:28;;;;;;;1.85;1.10;;;26.70;92.40;;;;;;5092035;28;20401;-68
2022/06/29 12:29:55;;;;;;;2.85;1.10;;;26.50;93.00;;;;;;5092884;28;20028;-68
2022/06/29 12:32:21;;;;;;;2.00;1.10;;;26.10;93.40;;;;;;5094143;28;20035;-68
2022/06/29 12:34:46;;;;;;;2.53;1.20;;;26.60;93.30;;;;;;5092146;28;20058;-68
2022/06/29 12:37:13;;;;;;;3.20;1.30;;;25.70;94.10;;;;;;5090339;28;20058;-67
2022/06/29 12:39:38;;;;;;;2.40;1.30;;;25.10;95.60;;;;;;5091840;28;20107;-68
2022/06/29 12:42:04;;;;;;;2.90;1.15;;;25.10;95.20;;;;;;5092486;28;20127;-68
2022/06/29 12:44:30;;;;;;;2.33;1.10;;;25.00;95.50;;;;;;5094097;28;20443;-67
2022/06/29 12:46:56;;;;;;;1.50;1.20;;;24.70;95.90;;;;;;5091782;28;20035;-67
2022/06/29 12:49:22;;;;;;;2.95;1.33;;;24.60;96.20;;;;;;5092397;28;20024;-67
2022/06/29 12:51:48;;;;;;;3.45;1.40;;;24.40;96.70;;;;;;5091486;28;20035;-66
2022/06/29 12:54:14;;;;;;;2.67;1.25;;;24.50;96.50;;;;;;5091942;28;20020;-67
2022/06/29 12:56:40;;;;;;;1.75;1.25;;;24.30;97.10;;;;;;5093268;28;20034;-67
2022/06/29 12:59:05;;;;;;;2.22;1.25;;;24.50;97.30;;;;;;5092251;28;20028;-66
2022/06/29 13:01:31;;;;;;;2.55;1.00;;;24.60;96.60;;;;;;5090300;28;20024;-67
2022/06/29 13:03:57;;;;;;;3.22;1.50;;;24.50;97.00;;;;;;5091502;28;20123;-67
2022/06/29 13:06:22;;;;;;;3.15;1.35;;;24.30;97.50;;;;;;5091968;28;20030;-67
2022/06/29 13:08:48;;;;;;;3.20;1.35;;;24.50;97.10;;;;;;5092195;28;20049;-67
2022/06/29 13:11:14;;;;;;;2.17;1.10;;;24.40;97.10;;;;;;5093573;28;20028;-67
2022/06/29 13:13:40;;;;;;;3.17;1.30;;;24.50;97.10;;;;;;5091479;28;20028;-67
2022/06/29 13:16:07;;;;;;;4.10;1.40;;;24.50;97.10;;;;;;5089848;28;20032;-67